SFR636 FACT-FAHS
Flight info
| Callsign | SFR636 |
|---|---|
| Flight time | N/A |
| Altitude | 37000 |
| Route | TETAN UZ2 NIBEX DCT EGMEN DCT ANVIT DCT HSV |
| Aircraft | B738/M-SDE2E3FGHIRWXY/LB1 |
Departure
| Time | 2026-05-04 09:56 |
|---|---|
| Airport | Cape Town International Airport (FACT) |
Arrival
| Time | N/A |
|---|---|
| Airport | FAHS |
| Time | Latitude | Longitude | Altitude | Speed | Heading |
|---|---|---|---|---|---|
| 2026-05-04 09:37 | -33.97188 | 18.59894 | 153 ft | 0 kts | 255° |
| 2026-05-04 09:46 | -33.97171 | 18.59962 | 153 ft | 4 kts | 227° |
| 2026-05-04 09:46 | -33.97152 | 18.59972 | 153 ft | 3 kts | 166° |
| 2026-05-04 09:46 | -33.97130 | 18.59965 | 153 ft | 1 kts | 166° |
| 2026-05-04 09:51 | -33.97529 | 18.60101 | 153 ft | 12 kts | 155° |
| 2026-05-04 09:51 | -33.97603 | 18.60142 | 153 ft | 12 kts | 157° |
| 2026-05-04 09:51 | -33.97679 | 18.60174 | 153 ft | 11 kts | 159° |
| 2026-05-04 09:51 | -33.97730 | 18.60237 | 153 ft | 11 kts | 99° |
| 2026-05-04 09:52 | -33.97748 | 18.60326 | 153 ft | 11 kts | 107° |
| 2026-05-04 09:52 | -33.97757 | 18.60362 | 153 ft | 0 kts | 105° |
| 2026-05-04 09:53 | -33.97767 | 18.60406 | 153 ft | 13 kts | 105° |
| 2026-05-04 09:54 | -33.97792 | 18.60513 | 153 ft | 13 kts | 114° |
| 2026-05-04 09:54 | -33.97785 | 18.60572 | 153 ft | 7 kts | 9° |
| 2026-05-04 09:54 | -33.97762 | 18.60568 | 153 ft | 0 kts | 345° |
| 2026-05-04 09:55 | -33.97747 | 18.60563 | 153 ft | 16 kts | 345° |
| 2026-05-04 09:55 | -33.97382 | 18.60448 | 151 ft | 91 kts | 345° |
| 2026-05-04 09:55 | -33.96555 | 18.60180 | 164 ft | 152 kts | 347° |
| 2026-05-04 09:55 | -33.95486 | 18.59821 | 690 ft | 164 kts | 345° |
| 2026-05-04 09:56 | -33.94371 | 18.59448 | 1648 ft | 163 kts | 341° |
| 2026-05-04 09:56 | -33.93237 | 18.59249 | 2330 ft | 181 kts | 0° |
| 2026-05-04 09:56 | -33.91995 | 18.59920 | 2706 ft | 215 kts | 42° |
| 2026-05-04 09:56 | -33.91225 | 18.61592 | 2953 ft | 245 kts | 70° |
| 2026-05-04 09:57 | -33.90710 | 18.63665 | 3258 ft | 270 kts | 72° |
| 2026-05-04 09:57 | -33.90164 | 18.65873 | 3995 ft | 278 kts | 70° |
| 2026-05-04 09:57 | -33.89584 | 18.68101 | 4903 ft | 282 kts | 70° |
| 2026-05-04 09:57 | -33.88960 | 18.70363 | 5725 ft | 287 kts | 68° |
| 2026-05-04 09:58 | -33.88305 | 18.72634 | 6662 ft | 289 kts | 67° |
| 2026-05-04 09:58 | -33.87629 | 18.74898 | 7443 ft | 293 kts | 65° |
| 2026-05-04 09:58 | -33.87059 | 18.77282 | 8240 ft | 304 kts | 82° |
| 2026-05-04 10:00 | -33.92379 | 18.96823 | 12336 ft | 391 kts | 106° |
| 2026-05-04 10:00 | -33.93272 | 18.99929 | 13118 ft | 394 kts | 102° |
| 2026-05-04 10:02 | -33.84320 | 19.17678 | 17782 ft | 372 kts | 35° |
| 2026-05-04 10:04 | -33.71736 | 19.34379 | 21721 ft | 397 kts | 35° |
| 2026-05-04 10:04 | -33.69876 | 19.36850 | 22274 ft | 399 kts | 34° |
| 2026-05-04 10:04 | -33.68636 | 19.38496 | 22609 ft | 401 kts | 34° |
| 2026-05-04 10:04 | -33.66757 | 19.40985 | 23160 ft | 403 kts | 35° |
| 2026-05-04 10:05 | -33.64911 | 19.43579 | 23648 ft | 411 kts | 38° |
| 2026-05-04 10:05 | -33.63121 | 19.46278 | 24009 ft | 416 kts | 39° |
| 2026-05-04 10:05 | -33.61346 | 19.49034 | 24537 ft | 415 kts | 39° |
| 2026-05-04 10:05 | -33.59590 | 19.51778 | 24981 ft | 415 kts | 39° |
| 2026-05-04 10:06 | -33.57831 | 19.54506 | 25300 ft | 420 kts | 39° |
| 2026-05-04 10:06 | -33.56025 | 19.57283 | 25741 ft | 424 kts | 39° |
| 2026-05-04 10:06 | -33.54200 | 19.60076 | 26255 ft | 426 kts | 39° |
| 2026-05-04 10:08 | -33.43032 | 19.77086 | 28670 ft | 440 kts | 38° |
| 2026-05-04 10:08 | -33.41131 | 19.79973 | 28988 ft | 443 kts | 39° |
| 2026-05-04 10:08 | -33.39214 | 19.82881 | 29220 ft | 447 kts | 39° |
| 2026-05-04 10:08 | -33.37276 | 19.85818 | 29506 ft | 450 kts | 39° |
| 2026-05-04 10:09 | -33.35330 | 19.88771 | 29892 ft | 452 kts | 39° |
| 2026-05-04 10:09 | -33.33381 | 19.91727 | 30230 ft | 453 kts | 39° |
| 2026-05-04 10:09 | -33.31416 | 19.94699 | 30460 ft | 455 kts | 38° |
| 2026-05-04 10:09 | -33.29468 | 19.97633 | 30689 ft | 456 kts | 38° |
| 2026-05-04 10:10 | -33.27438 | 20.00505 | 30950 ft | 453 kts | 36° |
| 2026-05-04 10:10 | -33.25350 | 20.03308 | 31303 ft | 450 kts | 34° |
| 2026-05-04 10:10 | -33.23250 | 20.06067 | 31686 ft | 448 kts | 34° |
| 2026-05-04 10:10 | -33.21153 | 20.08806 | 32004 ft | 447 kts | 34° |
| 2026-05-04 10:11 | -33.19047 | 20.11557 | 32262 ft | 448 kts | 34° |
| 2026-05-04 10:11 | -33.16949 | 20.14310 | 32530 ft | 448 kts | 34° |
| 2026-05-04 10:11 | -33.14862 | 20.17063 | 32925 ft | 446 kts | 34° |
| 2026-05-04 10:11 | -33.12804 | 20.19785 | 33289 ft | 445 kts | 34° |
| 2026-05-04 10:12 | -33.10730 | 20.22529 | 33572 ft | 446 kts | 34° |
| 2026-05-04 10:12 | -33.08652 | 20.25276 | 33842 ft | 446 kts | 34° |
| 2026-05-04 10:12 | -33.06576 | 20.28021 | 34117 ft | 446 kts | 34° |
| 2026-05-04 10:12 | -33.04496 | 20.30770 | 34346 ft | 446 kts | 34° |
| 2026-05-04 10:13 | -33.02415 | 20.33517 | 34550 ft | 447 kts | 34° |
| 2026-05-04 10:13 | -33.00330 | 20.36266 | 34716 ft | 449 kts | 34° |
| 2026-05-04 10:13 | -32.98230 | 20.39033 | 34938 ft | 449 kts | 34° |
| 2026-05-04 10:13 | -32.96131 | 20.41799 | 35192 ft | 449 kts | 34° |
| 2026-05-04 10:14 | -32.94038 | 20.44556 | 35369 ft | 449 kts | 34° |
| 2026-05-04 10:14 | -32.91933 | 20.47326 | 35483 ft | 450 kts | 34° |
| 2026-05-04 10:16 | -32.77231 | 20.66611 | 36920 ft | 450 kts | 34° |
| 2026-05-04 10:16 | -32.75118 | 20.69373 | 36974 ft | 451 kts | 34° |
| 2026-05-04 10:16 | -32.70880 | 20.74905 | 36980 ft | 453 kts | 34° |
| 2026-05-04 10:17 | -32.66652 | 20.80423 | 36969 ft | 451 kts | 34° |
| 2026-05-04 10:19 | -32.49747 | 21.02383 | 36966 ft | 452 kts | 34° |
| 2026-05-04 10:19 | -32.45499 | 21.07880 | 36961 ft | 452 kts | 34° |
| 2026-05-04 10:20 | -32.41243 | 21.13382 | 36961 ft | 453 kts | 34° |
| 2026-05-04 10:20 | -32.36986 | 21.18877 | 36929 ft | 451 kts | 33° |
| 2026-05-04 10:21 | -32.32749 | 21.24339 | 36948 ft | 451 kts | 33° |
| 2026-05-04 10:21 | -32.28507 | 21.29794 | 36954 ft | 450 kts | 33° |
| 2026-05-04 10:22 | -32.22165 | 21.37936 | 36986 ft | 450 kts | 33° |
| 2026-05-04 10:23 | -32.17917 | 21.43380 | 36948 ft | 451 kts | 33° |
| 2026-05-04 10:25 | -32.00907 | 21.65104 | 36958 ft | 451 kts | 33° |
| 2026-05-04 10:25 | -31.96643 | 21.70529 | 36963 ft | 451 kts | 33° |
| 2026-05-04 10:26 | -31.92375 | 21.75951 | 36960 ft | 451 kts | 33° |
| 2026-05-04 10:26 | -31.90966 | 21.77740 | 36974 ft | 451 kts | 33° |